Time;durP1;ratioP1;P1;durP2;ratioP2;P2;SDS_P1;SDS_P2;PMS_P1;PMS_P2;Temp;Humidity;BMP_temperature;BMP_pressure;BME280_temperature;BME280_humidity;BME280_pressure;Samples;Min_cycle;Max_cycle;Signal;HPM_P1;HPM_P2
2021/06/08 00:01:31;;;;;;;14.78;9.38;;;;;;;10.56;77.81;98359.20;1858948;77;20997;-77
2021/06/08 00:03:57;;;;;;;14.58;9.15;;;;;;;10.52;79.26;98353.52;1827964;77;21567;-77
2021/06/08 00:06:23;;;;;;;13.80;8.70;;;;;;;10.50;79.41;98358.91;1858660;77;20921;-77
2021/06/08 00:08:49;;;;;;;16.20;9.45;;;;;;;10.50;78.26;98363.79;1858425;77;20921;-77
2021/06/08 00:11:16;;;;;;;14.35;8.35;;;;;;;10.49;79.01;98358.10;1858685;76;21067;-77
2021/06/08 00:13:42;;;;;;;12.25;8.60;;;;;;;10.45;78.64;98361.09;1858405;77;20890;-77
2021/06/08 00:16:08;;;;;;;12.50;9.30;;;;;;;10.38;79.24;98362.71;1858776;76;21837;-77
2021/06/08 00:18:34;;;;;;;10.68;7.90;;;;;;;10.30;79.83;98359.72;1858391;77;20830;-77
2021/06/08 00:21:00;;;;;;;15.05;9.88;;;;;;;10.27;80.15;98362.44;1858867;77;20854;-77
2021/06/08 00:23:26;;;;;;;11.63;9.13;;;;;;;10.31;78.83;98354.58;1858569;77;21312;-77
2021/06/08 00:25:52;;;;;;;12.65;9.60;;;;;;;10.29;79.39;98362.16;1858689;76;20850;-77
2021/06/08 00:28:19;;;;;;;13.48;8.48;;;;;;;10.23;79.18;98359.17;1858889;76;21163;-77
2021/06/08 00:30:44;;;;;;;12.45;9.00;;;;;;;10.20;79.56;98362.39;1858542;77;21469;-77
2021/06/08 00:33:11;;;;;;;11.38;8.93;;;;;;;10.15;79.23;98350.45;1858539;77;20885;-77
2021/06/08 00:35:37;;;;;;;15.93;7.97;;;;;;;10.11;79.76;98352.09;1828585;77;21067;-77
2021/06/08 00:38:03;;;;;;;13.88;8.35;;;;;;;10.10;78.44;98349.11;1858499;77;20896;-77
2021/06/08 00:40:29;;;;;;;12.68;8.55;;;;;;;9.99;79.56;98350.16;1858933;76;21405;-77
2021/06/08 00:42:55;;;;;;;11.83;8.80;;;;;;;9.85;80.30;98345.81;1858483;77;20920;-77
2021/06/08 00:45:21;;;;;;;13.00;9.00;;;;;;;9.77;80.10;98342.81;1858941;77;21047;-77
2021/06/08 00:47:48;;;;;;;11.97;8.08;;;;;;;9.78;80.12;98343.08;1858614;77;21589;-77
2021/06/08 00:50:13;;;;;;;11.97;7.80;;;;;;;9.85;80.39;98345.00;1858561;77;21017;-77
2021/06/08 00:52:39;;;;;;;16.20;8.93;;;;;;;9.86;80.54;98349.33;1857806;77;21118;-77
2021/06/08 00:55:09;;;;;;;12.60;8.65;;;;;;;9.89;80.04;98350.14;1860485;77;20950;-77
2021/06/08 00:57:34;;;;;;;11.78;8.30;;;;;;;9.87;79.32;98350.41;1860966;77;20950;-77
2021/06/08 01:00:00;;;;;;;10.32;8.13;;;;;;;9.88;78.39;98343.10;1860909;77;20834;-77
2021/06/08 01:02:26;;;;;;;14.30;8.65;;;;;;;9.84;77.34;98343.38;1860869;77;21564;-77
2021/06/08 01:04:52;;;;;;;11.33;8.50;;;;;;;9.74;77.92;98339.27;1855394;77;21150;-77
2021/06/08 01:07:18;;;;;;;13.08;9.03;;;;;;;9.65;81.10;98348.98;1860775;77;20854;-77
2021/06/08 01:09:43;;;;;;;11.80;8.58;;;;;;;9.64;79.87;98345.46;1860710;77;20823;-77
2021/06/08 01:12:10;;;;;;;11.50;8.23;;;;;;;9.63;80.16;98349.79;1860781;77;21546;-77
2021/06/08 01:14:36;;;;;;;12.33;8.23;;;;;;;9.58;80.61;98348.70;1860818;77;20906;-77
2021/06/08 01:17:02;;;;;;;13.60;9.28;;;;;;;9.56;80.70;98354.09;1861093;77;21986;-77
2021/06/08 01:19:28;;;;;;;12.68;8.75;;;;;;;9.48;80.70;98349.19;1860624;77;20977;-77
2021/06/08 01:21:54;;;;;;;14.43;9.28;;;;;;;9.51;79.48;98351.38;1860988;77;20866;-77
2021/06/08 01:24:20;;;;;;;11.95;8.93;;;;;;;9.49;79.82;98350.30;1861089;77;20932;-77
2021/06/08 01:26:46;;;;;;;17.67;10.63;;;;;;;9.50;81.61;98347.05;1860978;77;21072;-77
2021/06/08 01:29:12;;;;;;;11.35;7.58;;;;;;;9.51;80.70;98348.13;1860750;77;21085;-77
2021/06/08 01:31:38;;;;;;;11.50;8.65;;;;;;;9.44;80.86;98350.80;1860934;76;21535;-77
2021/06/08 01:34:04;;;;;;;13.35;8.78;;;;;;;9.41;80.30;98356.21;1860762;77;20879;-77
2021/06/08 01:36:37;;;;;;;14.85;8.78;;;;;;;9.33;80.83;98344.00;1861052;77;20830;-77
2021/06/08 01:39:03;;;;;;;10.98;7.97;;;;;;;9.34;80.72;98342.11;1828525;77;20894;-77
2021/06/08 01:41:29;;;;;;;11.20;7.75;;;;;;;9.28;81.56;98345.86;1828132;77;21966;-77
2021/06/08 01:43:55;;;;;;;9.83;7.55;;;;;;;9.18;82.45;98349.88;1860586;77;20881;-77
2021/06/08 01:46:21;;;;;;;13.98;8.40;;;;;;;9.18;81.52;98347.16;1861248;76;20873;-77
2021/06/08 01:48:48;;;;;;;14.75;7.62;;;;;;;9.17;82.23;98340.95;1825972;77;21012;-77
2021/06/08 01:51:35;;;;;;;10.75;7.65;;;;;;;9.10;82.83;98342.25;1860955;76;21004;-77
2021/06/08 01:54:32;;;;;;;13.85;8.40;;;;;;;9.11;82.49;98348.75;1822983;78;21920;-77
2021/06/08 01:57:09;;;;;;;12.23;8.45;;;;;;;9.10;82.57;98353.88;1823151;78;20995;-77
2021/06/08 01:59:56;;;;;;;10.32;8.43;;;;;;;9.08;82.15;98347.92;1818240;78;20951;-76
2021/06/08 02:02:54;;;;;;;13.18;8.53;;;;;;;9.14;81.03;98352.27;1823183;78;21391;-76
2021/06/08 02:05:51;;;;;;;10.75;7.33;;;;;;;9.14;80.71;98350.91;1823333;78;20966;-77
2021/06/08 02:08:29;;;;;;;12.18;8.68;;;;;;;9.09;80.68;98349.55;1823082;78;21466;-77
2021/06/08 02:11:13;;;;;;;15.43;9.05;;;;;;;9.04;80.88;98348.16;1823149;78;20954;-76
2021/06/08 02:14:17;;;;;;;13.10;9.48;;;;;;;8.98;80.46;98345.98;1823569;78;20930;-76
2021/06/08 02:16:53;;;;;;;13.00;9.13;;;;;;;8.96;81.33;98349.46;1823218;78;20935;-77
2021/06/08 02:19:23;;;;;;;12.33;9.33;;;;;;;8.96;80.59;98357.57;1822858;78;21002;-77
2021/06/08 02:21:53;;;;;;;11.12;7.90;;;;;;;8.92;82.33;98353.77;1822899;78;21364;-76
2021/06/08 02:24:21;;;;;;;11.73;8.40;;;;;;;8.96;82.11;98360.81;1790978;78;21411;-77
2021/06/08 02:26:47;;;;;;;11.70;8.20;;;;;;;8.95;82.19;98357.30;1791697;78;21053;-76
2021/06/08 02:29:14;;;;;;;10.68;7.97;;;;;;;8.98;80.18;98360.84;1822797;78;21157;-76
2021/06/08 02:31:42;;;;;;;10.90;8.23;;;;;;;8.95;82.42;98355.13;1791318;78;20985;-76
2021/06/08 02:34:08;;;;;;;13.88;7.75;;;;;;;9.01;80.21;98356.80;1822816;78;21749;-76
2021/06/08 02:36:34;;;;;;;11.00;7.83;;;;;;;8.94;81.10;98364.32;1823028;78;20897;-76
2021/06/08 02:39:00;;;;;;;12.40;7.20;;;;;;;8.93;81.36;98368.10;1791151;78;20894;-76
2021/06/08 02:41:26;;;;;;;13.32;8.58;;;;;;;8.83;81.34;98366.14;1823178;78;21462;-76
2021/06/08 02:43:52;;;;;;;11.88;9.15;;;;;;;8.81;80.88;98370.19;1822855;78;20907;-76
2021/06/08 02:46:18;;;;;;;11.43;9.00;;;;;;;8.76;80.94;98369.61;1823412;78;21087;-76
2021/06/08 02:48:45;;;;;;;13.55;8.25;;;;;;;8.74;80.47;98371.22;1823004;78;20923;-76
2021/06/08 02:51:11;;;;;;;13.85;8.63;;;;;;;8.66;81.12;98369.00;1823020;78;21045;-76
2021/06/08 02:53:37;;;;;;;12.15;8.05;;;;;;;8.67;79.55;98373.32;1822964;78;20859;-76
2021/06/08 02:56:05;;;;;;;11.83;8.75;;;;;;;8.59;81.01;98372.45;1822804;78;21030;-76
2021/06/08 02:58:32;;;;;;;9.65;7.45;;;;;;;8.53;81.17;98372.12;1823276;78;21070;-77
2021/06/08 03:00:58;;;;;;;12.75;8.68;;;;;;;8.59;80.19;98381.91;1823080;78;21100;-77
2021/06/08 03:03:30;;;;;;;9.38;7.45;;;;;;;8.55;80.98;98376.75;1822920;78;21386;-77
2021/06/08 03:06:16;;;;;;;12.07;7.28;;;;;;;8.58;81.63;98383.52;1823066;78;20947;-77
2021/06/08 03:08:56;;;;;;;14.10;8.08;;;;;;;8.65;80.08;98394.39;1821108;78;21377;-77
2021/06/08 03:11:33;;;;;;;13.32;8.28;;;;;;;8.67;80.25;98390.07;1823234;78;21152;-77
2021/06/08 03:13:59;;;;;;;12.10;8.60;;;;;;;8.68;81.04;98383.59;1819329;78;21367;-76
2021/06/08 03:16:27;;;;;;;16.32;8.20;;;;;;;8.71;81.41;98389.28;1823185;78;20879;-76
2021/06/08 03:18:54;;;;;;;12.60;8.13;;;;;;;8.79;80.39;98391.23;1791128;78;20955;-76
2021/06/08 03:21:24;;;;;;;12.15;8.08;;;;;;;8.81;80.71;98400.73;1823223;78;20934;-76
2021/06/08 03:23:51;;;;;;;14.58;9.28;;;;;;;8.85;79.85;98399.13;1822867;78;21138;-77
2021/06/08 03:26:18;;;;;;;10.00;6.80;;;;;;;8.88;80.40;98398.59;1823080;78;21509;-77
2021/06/08 03:28:44;;;;;;;12.25;8.80;;;;;;;8.96;80.30;98400.00;1822905;78;20891;-77
2021/06/08 03:31:14;;;;;;;11.33;8.95;;;;;;;9.03;80.78;98400.59;1791142;78;21014;-77
2021/06/08 03:33:40;;;;;;;12.73;7.55;;;;;;;9.13;80.93;98396.60;1822842;78;20935;-77
2021/06/08 03:36:07;;;;;;;11.55;7.65;;;;;;;9.25;80.68;98403.99;1823167;78;21013;-77
2021/06/08 03:38:33;;;;;;;10.82;7.70;;;;;;;9.40;80.30;98398.38;1791117;78;21013;-77
2021/06/08 03:40:59;;;;;;;12.85;8.15;;;;;;;9.50;80.06;98405.21;1823143;78;21430;-77
2021/06/08 03:43:25;;;;;;;14.35;8.28;;;;;;;9.58;80.38;98406.88;1789849;78;20870;-77
2021/06/08 03:45:51;;;;;;;12.30;8.58;;;;;;;9.75;79.33;98405.33;1823185;78;20965;-77
2021/06/08 03:48:17;;;;;;;13.93;8.53;;;;;;;9.83;79.56;98404.00;1822989;78;21299;-77
2021/06/08 03:50:44;;;;;;;11.55;8.35;;;;;;;9.95;78.89;98401.87;1791140;78;20969;-77
2021/06/08 03:53:10;;;;;;;10.75;8.75;;;;;;;10.06;78.05;98404.86;1824390;78;20970;-77
2021/06/08 03:55:36;;;;;;;12.05;8.15;;;;;;;10.10;78.63;98402.45;1832230;78;20934;-77
2021/06/08 03:58:10;;;;;;;12.40;8.65;;;;;;;10.18;78.21;98397.88;1832315;78;20903;-77
2021/06/08 04:00:30;;;;;;;10.15;7.53;;;;;;;10.28;77.64;98402.52;1803107;78;22863;-77
2021/06/08 04:02:56;;;;;;;12.20;8.93;;;;;;;10.36;77.18;98397.94;1832840;78;20934;-77
2021/06/08 04:05:22;;;;;;;15.58;8.65;;;;;;;10.42;77.46;98393.61;1804337;78;21032;-77
2021/06/08 04:07:48;;;;;;;11.70;8.00;;;;;;;10.51;77.19;98399.83;1832245;78;20858;-77
2021/06/08 04:10:19;;;;;;;10.98;9.03;;;;;;;10.60;76.97;98396.88;1832318;78;21336;-77
2021/06/08 04:12:45;;;;;;;14.00;8.50;;;;;;;10.71;76.79;98395.24;1803483;78;22031;-77
2021/06/08 04:15:12;;;;;;;10.35;7.62;;;;;;;10.85;76.37;98400.09;1832001;78;20939;-77
2021/06/08 04:17:38;;;;;;;15.48;9.15;;;;;;;11.01;76.21;98397.65;1832282;78;21014;-77
2021/06/08 04:20:07;;;;;;;10.00;8.23;;;;;;;11.14;75.83;98399.81;1832059;78;20913;-77
2021/06/08 04:22:34;;;;;;;13.88;9.10;;;;;;;11.25;75.69;98399.25;1804532;78;21403;-77
2021/06/08 04:25:01;;;;;;;9.63;8.15;;;;;;;11.46;74.80;98391.88;1832006;78;21208;-77
2021/06/08 04:27:28;;;;;;;17.73;9.58;;;;;;;11.57;75.10;98392.11;1804398;78;21029;-77
2021/06/08 04:29:55;;;;;;;9.88;8.58;;;;;;;11.57;75.10;98392.11;1832144;78;20938;-77
2021/06/08 04:32:21;;;;;;;13.93;9.43;;;;;;;11.74;74.58;98386.34;1832377;78;20993;-77
2021/06/08 04:34:53;;;;;;;12.18;9.18;;;;;;;11.91;74.16;98391.45;1832093;78;21567;-77
2021/06/08 04:37:19;;;;;;;10.00;8.13;;;;;;;12.04;74.43;98392.19;1803660;78;21148;-76
2021/06/08 04:39:45;;;;;;;17.05;8.30;;;;;;;12.31;73.92;98391.78;1831932;78;21320;-76
2021/06/08 04:42:12;;;;;;;12.90;10.03;;;;;;;12.50;73.45;98391.92;1832233;78;21044;-76
2021/06/08 04:44:47;;;;;;;15.88;9.38;;;;;;;12.73;72.53;98390.36;1831954;78;20966;-76
2021/06/08 04:47:15;;;;;;;10.80;8.05;;;;;;;12.90;71.12;98396.20;1832420;78;20989;-76
2021/06/08 04:49:40;;;;;;;13.08;9.85;;;;;;;12.97;71.11;98394.77;1832290;78;21446;-77
2021/06/08 04:52:07;;;;;;;11.73;8.38;;;;;;;13.07;71.54;98400.66;1832250;78;21622;-77
2021/06/08 04:54:33;;;;;;;11.90;8.83;;;;;;;13.25;71.10;98397.83;1824189;78;20954;-77
2021/06/08 04:57:00;;;;;;;16.77;9.43;;;;;;;13.44;70.97;98399.26;1826266;78;21010;-77
2021/06/08 04:59:54;;;;;;;11.70;8.83;;;;;;;13.70;70.25;98400.59;1796140;78;21312;-77
2021/06/08 05:02:43;;;;;;;15.23;9.70;;;;;;;13.90;69.06;98396.80;1825454;78;21383;-77
2021/06/08 05:05:13;;;;;;;14.13;9.53;;;;;;;14.00;68.30;98391.20;1826147;78;21014;-77
2021/06/08 05:07:44;;;;;;;14.43;8.28;;;;;;;14.17;67.03;98398.88;1826263;78;21396;-76
2021/06/08 05:10:12;;;;;;;13.90;7.80;;;;;;;14.28;66.20;98398.21;1826361;78;21002;-77
2021/06/08 05:12:41;;;;;;;13.95;8.73;;;;;;;14.32;65.95;98399.23;1768797;78;21156;-77
2021/06/08 05:15:09;;;;;;;13.15;8.98;;;;;;;14.45;65.90;98396.33;1825324;78;22036;-76
2021/06/08 05:17:35;;;;;;;10.37;9.30;;;;;;;14.55;66.13;98398.93;1796541;78;20951;-76
2021/06/08 05:20:01;;;;;;;12.25;9.03;;;;;;;14.76;65.88;98395.31;1826068;78;20908;-76
2021/06/08 05:22:30;;;;;;;16.27;9.60;;;;;;;14.92;64.82;98396.12;1796689;78;21479;-76
2021/06/08 05:24:57;;;;;;;10.38;8.00;;;;;;;15.03;64.22;98400.05;1796299;78;21311;-75
2021/06/08 05:27:23;;;;;;;11.97;8.88;;;;;;;15.19;63.52;98397.30;1826493;78;21050;-76
2021/06/08 05:29:53;;;;;;;15.60;10.90;;;;;;;15.27;63.21;98393.08;1825845;78;21003;-76
2021/06/08 05:32:19;;;;;;;12.55;8.78;;;;;;;15.43;62.82;98392.48;1826084;78;21001;-76
2021/06/08 05:34:45;;;;;;;11.53;8.45;;;;;;;15.57;62.03;98388.97;1825917;78;20939;-76
2021/06/08 05:37:13;;;;;;;11.95;8.03;;;;;;;15.68;61.20;98390.41;1826210;78;21469;-76
2021/06/08 05:39:40;;;;;;;11.22;6.62;;;;;;;15.77;61.65;98384.48;1796434;78;21219;-76
2021/06/08 05:42:07;;;;;;;9.58;7.75;;;;;;;15.96;60.91;98385.73;1826131;78;21521;-76
2021/06/08 05:44:34;;;;;;;41.80;29.98;;;;;;;16.13;60.76;98389.19;1825857;78;20951;-75
2021/06/08 05:47:03;;;;;;;52.10;37.03;;;;;;;16.28;60.50;98387.49;1796418;78;20975;-75
2021/06/08 05:49:29;;;;;;;11.53;8.78;;;;;;;16.45;60.08;98386.28;1823157;78;21006;-76
2021/06/08 05:51:58;;;;;;;9.65;7.30;;;;;;;16.58;59.10;98384.06;1826588;78;21339;-76
2021/06/08 05:54:23;;;;;;;17.57;8.43;;;;;;;16.71;59.61;98383.78;1824975;78;20875;-76
2021/06/08 05:56:49;;;;;;;19.40;8.23;;;;;;;16.97;58.45;98385.32;1823146;78;21006;-76
2021/06/08 05:59:15;;;;;;;12.82;7.70;;;;;;;17.12;58.61;98383.56;1822897;78;21017;-77
2021/06/08 06:01:41;;;;;;;14.93;8.10;;;;;;;17.32;58.33;98381.41;1823444;78;21038;-77
2021/06/08 06:04:12;;;;;;;14.87;7.45;;;;;;;17.52;58.76;98376.77;1822906;78;21142;-76
2021/06/08 06:06:40;;;;;;;12.85;7.60;;;;;;;17.80;58.33;98377.36;1791380;78;20935;-76
2021/06/08 06:09:07;;;;;;;8.98;6.75;;;;;;;17.95;57.37;98375.56;1822487;78;21330;-76
2021/06/08 06:11:33;;;;;;;13.45;7.70;;;;;;;18.07;56.69;98377.67;1822869;78;21073;-76
2021/06/08 06:14:02;;;;;;;10.53;7.15;;;;;;;18.15;56.42;98376.87;1791229;78;21109;-76
2021/06/08 06:16:31;;;;;;;13.58;9.58;;;;;;;18.23;56.91;98382.94;1823191;78;21252;-76
2021/06/08 06:19:00;;;;;;;9.65;7.08;;;;;;;18.46;56.83;98373.20;1823070;78;21144;-76
2021/06/08 06:21:26;;;;;;;;;;;;;;;18.69;55.87;98369.17;1825994;78;21017;-76
2021/06/08 06:23:52;;;;;;;10.60;6.58;;;;;;;18.80;55.76;98366.89;1790562;80;20186;-76
2021/06/08 06:26:18;;;;;;;9.45;6.37;;;;;;;18.81;55.52;98362.47;1823158;78;20845;-76
2021/06/08 06:28:44;;;;;;;7.80;6.72;;;;;;;18.93;56.42;98367.86;1822824;78;21036;-76
2021/06/08 06:31:10;;;;;;;11.08;6.35;;;;;;;19.13;56.11;98364.41;1823228;78;21005;-76
2021/06/08 06:33:37;;;;;;;9.35;6.35;;;;;;;19.39;56.39;98360.20;1822922;78;21338;-76
2021/06/08 06:36:06;;;;;;;14.00;7.47;;;;;;;19.69;55.72;98355.59;1822665;78;21013;-76
2021/06/08 06:38:32;;;;;;;13.13;6.65;;;;;;;19.93;54.96;98352.22;1823057;78;20899;-76
2021/06/08 06:41:05;;;;;;;11.45;5.70;;;;;;;20.22;53.75;98354.13;1823484;78;21005;-76
2021/06/08 06:43:30;;;;;;;13.75;5.92;;;;;;;20.39;52.79;98350.44;1790551;78;21438;-75
2021/06/08 06:45:56;;;;;;;5.95;4.85;;;;;;;20.63;52.44;98349.21;1822779;78;20977;-75
2021/06/08 06:48:22;;;;;;;10.08;6.85;;;;;;;20.82;50.14;98352.84;1822964;78;20882;-76
2021/06/08 06:50:51;;;;;;;8.68;5.28;;;;;;;20.93;50.14;98347.70;1822970;78;20871;-76
2021/06/08 06:53:18;;;;;;;9.88;5.65;;;;;;;21.10;48.32;98344.77;1823026;78;21299;-77
2021/06/08 06:55:49;;;;;;;11.28;6.87;;;;;;;21.31;48.02;98341.41;1822883;78;20895;-76
2021/06/08 06:58:19;;;;;;;7.03;5.53;;;;;;;21.45;48.28;98345.77;1822990;78;20927;-77
2021/06/08 07:00:45;;;;;;;9.53;4.90;;;;;;;21.65;47.39;98340.17;1822163;78;20923;-76
2021/06/08 07:03:13;;;;;;;5.40;4.33;;;;;;;21.66;45.77;98343.73;1823035;78;20949;-76
2021/06/08 07:05:39;;;;;;;6.67;4.57;;;;;;;21.69;45.59;98341.08;1823053;78;21774;-77
2021/06/08 07:08:06;;;;;;;10.60;5.60;;;;;;;21.70;44.86;98343.25;1823147;78;20926;-77
2021/06/08 07:10:32;;;;;;;12.30;6.10;;;;;;;21.74;44.97;98334.54;1822937;78;20907;-76
2021/06/08 07:13:03;;;;;;;6.35;5.35;;;;;;;21.88;44.52;98338.33;1822763;78;20907;-76
2021/06/08 07:15:27;;;;;;;26.25;9.00;;;;;;;22.07;44.43;98341.87;1822393;78;21280;-76
2021/06/08 07:17:53;;;;;;;18.60;7.83;;;;;;;22.30;44.62;98338.03;1822750;78;21190;-76
2021/06/08 07:20:19;;;;;;;10.43;5.30;;;;;;;22.80;43.09;98341.66;1791113;78;20979;-77
2021/06/08 07:22:45;;;;;;;11.10;5.40;;;;;;;23.05;44.68;98333.50;1823088;78;20926;-77
2021/06/08 07:25:12;;;;;;;12.58;6.40;;;;;;;23.32;43.91;98340.70;1822865;78;20986;-77
2021/06/08 07:27:38;;;;;;;6.78;5.40;;;;;;;23.57;43.05;98328.89;1823070;78;21497;-77
2021/06/08 07:30:07;;;;;;;11.45;7.92;;;;;;;23.53;41.47;98335.72;1822921;78;21077;-77
2021/06/08 07:32:54;;;;;;;9.60;7.72;;;;;;;23.60;42.08;98339.28;1791469;78;21369;-77
2021/06/08 07:35:28;;;;;;;6.67;4.92;;;;;;;24.16;41.00;98334.25;1822371;78;21368;-77
2021/06/08 07:37:54;;;;;;;8.98;6.05;;;;;;;24.99;39.46;98332.63;1791039;78;20923;-77
2021/06/08 07:40:28;;;;;;;16.80;8.00;;;;;;;25.23;35.86;98334.29;1823146;78;21013;-77
2021/06/08 07:42:57;;;;;;;5.55;4.90;;;;;;;25.89;36.87;98331.63;1822964;78;21133;-77
2021/06/08 07:45:32;;;;;;;7.50;4.25;;;;;;;26.19;34.89;98334.45;1822725;78;21435;-77
2021/06/08 07:47:59;;;;;;;6.33;4.50;;;;;;;26.57;34.31;98331.20;1822979;78;20911;-77
2021/06/08 07:50:33;;;;;;;8.60;5.12;;;;;;;26.90;33.14;98333.98;1756221;78;21018;-77
2021/06/08 07:53:01;;;;;;;7.97;4.78;;;;;;;27.54;33.37;98333.86;1791612;78;20887;-77
2021/06/08 07:55:27;;;;;;;11.93;6.60;;;;;;;27.96;33.71;98331.23;1822927;78;21151;-77
2021/06/08 07:57:53;;;;;;;6.00;4.17;;;;;;;28.26;31.84;98325.43;1822962;78;20908;-77
2021/06/08 08:00:19;;;;;;;6.65;4.53;;;;;;;27.94;30.82;98325.22;1823178;78;20827;-77
2021/06/08 08:02:46;;;;;;;11.10;5.15;;;;;;;28.47;30.07;98327.58;1789934;78;21010;-77
2021/06/08 08:05:16;;;;;;;6.78;4.30;;;;;;;29.14;32.21;98325.04;1823195;78;21344;-77
2021/06/08 08:07:42;;;;;;;11.68;4.20;;;;;;;29.39;28.89;98320.86;1823141;78;20986;-77
2021/06/08 08:10:09;;;;;;;8.70;4.30;;;;;;;29.63;29.19;98329.67;1822842;78;21006;-77
2021/06/08 08:12:37;;;;;;;14.10;7.62;;;;;;;29.35;27.43;98322.86;1823483;78;21005;-77
2021/06/08 08:15:04;;;;;;;7.37;4.72;;;;;;;29.54;28.89;98325.89;1823096;78;20947;-77
2021/06/08 08:17:30;;;;;;;17.27;9.15;;;;;;;29.86;28.74;98316.71;1823174;78;26340;-77
2021/06/08 08:19:57;;;;;;;12.47;6.30;;;;;;;30.50;29.09;98318.76;1823009;78;21146;-77
2021/06/08 08:22:23;;;;;;;9.48;4.92;;;;;;;30.80;27.95;98318.27;1822990;78;20998;-77
2021/06/08 08:24:49;;;;;;;13.85;5.97;;;;;;;31.06;28.12;98314.73;1822815;78;21029;-77
2021/06/08 08:27:15;;;;;;;19.75;7.45;;;;;;;31.07;26.64;98326.11;1823235;78;21013;-77
2021/06/08 08:29:42;;;;;;;13.80;6.60;;;;;;;31.68;26.98;98320.89;1822925;78;20878;-77
2021/06/08 08:32:08;;;;;;;18.35;4.90;;;;;;;32.10;26.75;98318.93;1823163;78;21219;-77
2021/06/08 08:34:34;;;;;;;6.22;4.00;;;;;;;32.51;26.11;98313.30;1789653;78;21223;-77
2021/06/08 08:37:02;;;;;;;6.85;3.35;;;;;;;32.63;25.15;98322.55;1791081;78;21004;-77
2021/06/08 08:39:28;;;;;;;13.55;4.72;;;;;;;32.76;25.12;98315.79;1822989;78;27221;-77
2021/06/08 08:41:54;;;;;;;9.83;3.50;;;;;;;33.24;25.01;98315.52;1790013;78;20827;-78
2021/06/08 08:44:20;;;;;;;17.05;5.37;;;;;;;33.61;23.18;98312.38;1822798;78;21300;-77
2021/06/08 08:46:46;;;;;;;4.75;2.95;;;;;;;33.50;24.88;98310.34;1823026;78;20904;-78
2021/06/08 08:49:12;;;;;;;13.32;4.40;;;;;;;33.56;23.35;98312.86;1789802;78;21439;-78
2021/06/08 08:51:38;;;;;;;7.45;3.70;;;;;;;33.72;23.57;98312.20;1789590;78;20831;-77
2021/06/08 08:54:05;;;;;;;6.95;3.50;;;;;;;33.79;23.31;98304.44;1822845;78;20899;-77
2021/06/08 08:56:36;;;;;;;5.35;3.08;;;;;;;34.52;23.17;98306.91;1789686;78;21415;-77
2021/06/08 08:59:10;;;;;;;7.12;3.40;;;;;;;34.53;19.38;98312.74;1791065;78;21284;-77
2021/06/08 09:01:38;;;;;;;3.45;2.85;;;;;;;34.65;21.87;98302.23;1823014;78;20934;-77
2021/06/08 09:04:05;;;;;;;11.65;3.35;;;;;;;34.55;20.65;98305.27;1822883;78;20902;-77
2021/06/08 09:06:32;;;;;;;6.95;2.67;;;;;;;34.44;21.04;98309.10;1822868;78;26561;-77
2021/06/08 09:08:58;;;;;;;3.77;2.77;;;;;;;34.26;19.50;98309.22;1823426;78;21017;-77
2021/06/08 09:11:24;;;;;;;5.17;3.20;;;;;;;35.08;19.92;98304.13;1822792;78;20882;-77
2021/06/08 09:13:50;;;;;;;4.15;2.70;;;;;;;35.54;19.17;98312.91;1789825;78;21006;-77
2021/06/08 09:16:16;;;;;;;9.08;2.52;;;;;;;34.80;18.06;98311.78;1822911;78;20879;-77
2021/06/08 09:18:43;;;;;;;7.55;4.58;;;;;;;35.39;18.32;98308.05;1791146;78;20946;-77
2021/06/08 09:21:20;;;;;;;8.93;4.30;;;;;;;35.44;18.81;98310.36;1823146;78;21154;-77
2021/06/08 09:23:47;;;;;;;6.65;3.12;;;;;;;35.17;19.27;98306.34;1823007;78;20887;-77
2021/06/08 09:26:15;;;;;;;15.63;4.25;;;;;;;34.73;18.29;98309.30;1822629;78;21009;-77
2021/06/08 09:28:41;;;;;;;4.70;2.62;;;;;;;35.39;17.47;98305.23;1822844;78;20947;-77
2021/06/08 09:31:24;;;;;;;7.28;2.92;;;;;;;35.49;17.29;98300.77;1789730;78;21013;-77
2021/06/08 09:33:54;;;;;;;12.80;3.35;;;;;;;35.87;16.96;98306.63;1823111;78;21788;-78
2021/06/08 09:36:26;;;;;;;7.58;3.25;;;;;;;36.36;17.20;98303.76;1822813;78;20951;-76
2021/06/08 09:39:00;;;;;;;5.75;2.90;;;;;;;36.04;15.89;98303.81;1823081;78;21423;-77
2021/06/08 09:41:47;;;;;;;2.72;2.50;;;;;;;34.80;16.44;98297.09;1822932;78;21324;-77
2021/06/08 09:44:15;;;;;;;4.80;2.80;;;;;;;35.97;17.06;98299.77;1822229;78;21014;-77
2021/06/08 09:46:47;;;;;;;7.22;2.50;;;;;;;35.66;16.63;98293.73;1822870;78;21379;-77
2021/06/08 09:49:16;;;;;;;5.85;2.75;;;;;;;36.81;16.43;98294.37;1791027;78;21284;-77
2021/06/08 09:51:54;;;;;;;4.72;2.77;;;;;;;36.40;15.87;98300.83;1822911;78;20900;-77
2021/06/08 09:54:34;;;;;;;6.90;2.75;;;;;;;36.58;15.59;98295.48;1823015;78;20970;-77
2021/06/08 09:57:27;;;;;;;6.97;4.22;;;;;;;36.68;15.14;98298.61;1830880;78;20966;-77
2021/06/08 10:00:07;;;;;;;9.38;6.65;;;;;;;37.88;15.10;98287.39;1832676;78;21138;-77
2021/06/08 10:02:44;;;;;;;4.35;2.83;;;;;;;38.67;15.03;98291.79;1832445;78;20934;-76
2021/06/08 10:05:29;;;;;;;4.20;2.98;;;;;;;38.33;14.60;98296.91;1832481;78;20911;-77
2021/06/08 10:08:04;;;;;;;11.00;4.22;;;;;;;37.64;14.14;98292.62;1832597;78;20930;-77
2021/06/08 10:10:44;;;;;;;8.15;3.92;;;;;;;38.74;14.33;98290.14;1832643;78;21347;-77
2021/06/08 10:13:14;;;;;;;8.35;3.35;;;;;;;39.65;12.16;98283.28;1832603;78;21130;-77
2021/06/08 10:15:58;;;;;;;4.10;2.35;;;;;;;39.09;12.51;98285.12;1804677;78;20989;-77
2021/06/08 10:18:48;;;;;;;7.20;3.58;;;;;;;38.75;12.27;98284.64;1832302;78;21304;-77
2021/06/08 10:21:14;;;;;;;31.90;7.08;;;;;;;39.89;13.12;98285.69;1832349;78;20915;-76
2021/06/08 10:23:40;;;;;;;2.37;1.80;;;;;;;40.74;13.02;98277.47;1832287;78;20957;-76
2021/06/08 10:26:10;;;;;;;4.80;2.40;;;;;;;38.49;11.00;98281.15;1832556;78;21133;-76
2021/06/08 10:28:36;;;;;;;7.00;3.20;;;;;;;38.14;11.29;98274.73;1832212;78;20927;-77
2021/06/08 10:31:02;;;;;;;11.90;4.22;;;;;;;39.34;12.11;98277.69;1832540;78;20946;-77
2021/06/08 10:33:28;;;;;;;8.40;3.67;;;;;;;39.29;12.02;98275.45;1832482;78;21430;-77
2021/06/08 10:35:55;;;;;;;3.62;1.95;;;;;;;39.41;12.34;98274.56;1832290;78;20846;-77
2021/06/08 10:38:21;;;;;;;13.40;2.67;;;;;;;39.62;11.93;98272.89;1832835;78;21063;-77
2021/06/08 10:40:51;;;;;;;4.30;2.33;;;;;;;40.15;12.28;98271.23;1832299;78;20970;-77
2021/06/08 10:43:20;;;;;;;4.75;2.27;;;;;;;39.15;11.83;98278.26;1832457;78;21327;-77
2021/06/08 10:45:46;;;;;;;5.70;2.45;;;;;;;39.65;11.83;98272.73;1832185;78;21363;-77
2021/06/08 10:48:18;;;;;;;5.40;2.62;;;;;;;40.17;11.14;98280.86;1832396;78;21009;-77
2021/06/08 10:50:49;;;;;;;5.90;2.60;;;;;;;40.75;11.37;98279.05;1832504;78;21075;-77
2021/06/08 10:53:37;;;;;;;9.98;5.72;;;;;;;41.40;9.89;98267.64;1832194;78;21053;-77
2021/06/08 10:56:32;;;;;;;10.90;3.50;;;;;;;40.26;10.63;98273.77;1801977;78;21376;-76
2021/06/08 10:59:05;;;;;;;5.70;2.92;;;;;;;40.55;11.76;98273.27;1822396;78;20974;-77
2021/06/08 11:04:11;;;;;;;14.68;4.35;;;;;;;41.39;10.58;98258.33;1822868;78;21122;-77
2021/06/08 11:06:51;;;;;;;11.35;10.00;;;;;;;40.79;11.33;98266.90;1823366;78;21083;-77
2021/06/08 11:09:22;;;;;;;9.85;4.08;;;;;;;40.67;11.83;98271.49;1823322;78;21077;-78
2021/06/08 11:11:58;;;;;;;6.67;3.83;;;;;;;41.35;11.24;98263.38;1822716;78;21427;-78
2021/06/08 11:14:43;;;;;;;7.30;2.83;;;;;;;41.43;10.80;98263.81;1823096;78;24729;-76
2021/06/08 11:17:28;;;;;;;5.15;2.05;;;;;;;40.83;10.93;98264.66;1821841;78;21099;-77
2021/06/08 11:19:58;;;;;;;9.93;3.42;;;;;;;40.77;10.70;98251.77;1791276;78;20963;-76
2021/06/08 11:22:41;;;;;;;10.35;3.47;;;;;;;40.31;11.15;98248.98;1822725;78;20955;-77
2021/06/08 11:25:28;;;;;;;6.28;2.55;;;;;;;40.96;11.16;98246.83;1820748;78;21407;-77
2021/06/08 11:27:59;;;;;;;6.10;2.70;;;;;;;40.74;11.04;98250.50;1816064;78;20903;-77
2021/06/08 11:30:29;;;;;;;5.95;2.50;;;;;;;39.83;11.20;98246.47;1823024;78;21059;-77
2021/06/08 11:32:55;;;;;;;4.58;2.37;;;;;;;40.30;10.58;98244.57;1822982;78;21020;-77
2021/06/08 11:35:36;;;;;;;4.83;2.50;;;;;;;39.81;11.49;98248.97;1823399;78;20890;-77
2021/06/08 11:38:08;;;;;;;4.55;2.58;;;;;;;39.45;11.94;98243.38;1822898;78;20916;-77
2021/06/08 11:40:42;;;;;;;4.53;2.67;;;;;;;39.19;11.66;98239.22;1823018;78;21486;-77
2021/06/08 11:43:17;;;;;;;6.37;3.30;;;;;;;39.05;10.96;98239.13;1823110;78;21117;-77